sensor_id;sensor_type;location;lat;lon;timestamp;P1;P2;P0
76101;PMS7003;64830;46.910;6.354;2023-09-08T00:00:23;17.00;15.50;13.00
76101;PMS7003;64830;46.910;6.354;2023-09-08T00:02:54;18.75;18.00;13.75
76101;PMS7003;64830;46.910;6.354;2023-09-08T00:05:19;17.00;16.75;12.50
76101;PMS7003;64830;46.910;6.354;2023-09-08T00:07:45;20.00;19.75;15.25
76101;PMS7003;64830;46.910;6.354;2023-09-08T00:10:26;23.50;19.50;14.50
76101;PMS7003;64830;46.910;6.354;2023-09-08T00:13:06;20.00;18.00;12.75
76101;PMS7003;64830;46.910;6.354;2023-09-08T00:15:38;21.25;17.50;13.25
76101;PMS7003;64830;46.910;6.354;2023-09-08T00:18:06;17.00;17.00;13.25
76101;PMS7003;64830;46.910;6.354;2023-09-08T00:20:37;15.25;15.25;10.75
76101;PMS7003;64830;46.910;6.354;2023-09-08T00:23:02;20.50;19.00;15.00
76101;PMS7003;64830;46.910;6.354;2023-09-08T00:25:59;18.50;17.50;12.25
76101;PMS7003;64830;46.910;6.354;2023-09-08T00:28:30;22.75;18.25;14.25
76101;PMS7003;64830;46.910;6.354;2023-09-08T00:30:56;19.00;17.00;14.00
76101;PMS7003;64830;46.910;6.354;2023-09-08T00:33:28;18.50;17.75;13.00
76101;PMS7003;64830;46.910;6.354;2023-09-08T00:35:53;21.00;18.25;13.00
76101;PMS7003;64830;46.910;6.354;2023-09-08T00:38:22;16.50;16.00;12.00
76101;PMS7003;64830;46.910;6.354;2023-09-08T00:40:47;18.75;17.50;14.50
76101;PMS7003;64830;46.910;6.354;2023-09-08T00:43:13;19.50;19.00;15.00
76101;PMS7003;64830;46.910;6.354;2023-09-08T00:45:39;19.25;19.25;15.25
76101;PMS7003;64830;46.910;6.354;2023-09-08T00:48:17;26.25;18.00;12.50
76101;PMS7003;64830;46.910;6.354;2023-09-08T00:50:43;19.75;19.25;15.50
76101;PMS7003;64830;46.910;6.354;2023-09-08T00:53:20;21.25;17.75;13.75
76101;PMS7003;64830;46.910;6.354;2023-09-08T00:55:52;18.75;18.25;12.75
76101;PMS7003;64830;46.910;6.354;2023-09-08T00:58:18;20.75;18.00;13.75
76101;PMS7003;64830;46.910;6.354;2023-09-08T01:01:07;17.25;15.75;13.25
76101;PMS7003;64830;46.910;6.354;2023-09-08T01:03:32;17.75;17.75;14.50
76101;PMS7003;64830;46.910;6.354;2023-09-08T01:05:58;20.00;20.00;15.25
76101;PMS7003;64830;46.910;6.354;2023-09-08T01:08:46;19.75;19.75;14.25
76101;PMS7003;64830;46.910;6.354;2023-09-08T01:11:18;19.25;19.25;12.50
76101;PMS7003;64830;46.910;6.354;2023-09-08T01:13:50;21.50;20.00;15.25
76101;PMS7003;64830;46.910;6.354;2023-09-08T01:16:16;19.25;18.00;14.50
76101;PMS7003;64830;46.910;6.354;2023-09-08T01:27:56;20.00;20.00;14.50
76101;PMS7003;64830;46.910;6.354;2023-09-08T01:30:44;19.00;19.00;12.50
76101;PMS7003;64830;46.910;6.354;2023-09-08T01:33:16;18.00;18.00;14.50
76101;PMS7003;64830;46.910;6.354;2023-09-08T01:36:04;19.50;19.50;15.50
76101;PMS7003;64830;46.910;6.354;2023-09-08T01:38:29;22.50;20.75;15.25
76101;PMS7003;64830;46.910;6.354;2023-09-08T01:40:55;20.50;20.50;15.75
76101;PMS7003;64830;46.910;6.354;2023-09-08T01:43:27;19.00;19.00;14.50
76101;PMS7003;64830;46.910;6.354;2023-09-08T01:46:01;16.50;15.50;11.50
76101;PMS7003;64830;46.910;6.354;2023-09-08T01:48:27;22.75;20.50;15.50
76101;PMS7003;64830;46.910;6.354;2023-09-08T01:51:04;22.25;21.50;15.50
76101;PMS7003;64830;46.910;6.354;2023-09-08T01:53:39;21.75;20.50;15.00
76101;PMS7003;64830;46.910;6.354;2023-09-08T01:56:07;22.50;20.00;15.75
76101;PMS7003;64830;46.910;6.354;2023-09-08T01:58:32;20.00;19.75;16.00
76101;PMS7003;64830;46.910;6.354;2023-09-08T02:01:04;17.75;17.75;13.50
76101;PMS7003;64830;46.910;6.354;2023-09-08T02:03:36;25.00;23.00;16.50
76101;PMS7003;64830;46.910;6.354;2023-09-08T02:06:11;22.50;19.75;13.75
76101;PMS7003;64830;46.910;6.354;2023-09-08T02:08:43;17.75;17.25;13.50
76101;PMS7003;64830;46.910;6.354;2023-09-08T02:11:11;17.25;17.25;13.00
76101;PMS7003;64830;46.910;6.354;2023-09-08T02:13:38;22.50;21.00;15.00
76101;PMS7003;64830;46.910;6.354;2023-09-08T02:16:16;21.75;20.75;15.50
76101;PMS7003;64830;46.910;6.354;2023-09-08T02:18:41;20.75;19.75;15.50
76101;PMS7003;64830;46.910;6.354;2023-09-08T02:24:11;22.25;21.50;17.00
76101;PMS7003;64830;46.910;6.354;2023-09-08T02:26:43;22.25;21.25;15.00
76101;PMS7003;64830;46.910;6.354;2023-09-08T02:29:08;21.00;21.00;15.50
76101;PMS7003;64830;46.910;6.354;2023-09-08T02:31:43;18.50;18.50;14.25
76101;PMS7003;64830;46.910;6.354;2023-09-08T02:34:09;25.00;24.25;18.00
76101;PMS7003;64830;46.910;6.354;2023-09-08T02:36:45;20.75;18.00;14.50
76101;PMS7003;64830;46.910;6.354;2023-09-08T02:39:21;20.25;20.00;14.75
76101;PMS7003;64830;46.910;6.354;2023-09-08T02:41:48;19.00;17.75;13.00
76101;PMS7003;64830;46.910;6.354;2023-09-08T02:44:13;22.50;18.50;14.50
76101;PMS7003;64830;46.910;6.354;2023-09-08T02:46:39;21.00;19.00;14.00
76101;PMS7003;64830;46.910;6.354;2023-09-08T02:49:07;17.00;17.00;14.00
76101;PMS7003;64830;46.910;6.354;2023-09-08T02:51:32;20.00;17.75;14.75
76101;PMS7003;64830;46.910;6.354;2023-09-08T02:54:04;20.50;18.50;14.00
76101;PMS7003;64830;46.910;6.354;2023-09-08T02:56:30;19.00;19.00;15.00
76101;PMS7003;64830;46.910;6.354;2023-09-08T02:59:01;17.50;17.25;14.50
76101;PMS7003;64830;46.910;6.354;2023-09-08T03:01:29;17.75;17.75;13.00
76101;PMS7003;64830;46.910;6.354;2023-09-08T03:04:17;17.00;17.00;13.25
76101;PMS7003;64830;46.910;6.354;2023-09-08T03:06:49;20.75;20.25;14.75
76101;PMS7003;64830;46.910;6.354;2023-09-08T03:09:26;21.75;21.50;16.75
76101;PMS7003;64830;46.910;6.354;2023-09-08T03:11:51;19.50;17.75;13.25
76101;PMS7003;64830;46.910;6.354;2023-09-08T03:14:20;18.00;17.25;13.25
76101;PMS7003;64830;46.910;6.354;2023-09-08T03:17:00;21.25;21.25;15.00
76101;PMS7003;64830;46.910;6.354;2023-09-08T03:19:26;22.00;21.50;16.00
76101;PMS7003;64830;46.910;6.354;2023-09-08T03:24:53;22.00;21.25;15.50
76101;PMS7003;64830;46.910;6.354;2023-09-08T03:27:30;21.00;19.25;14.00
76101;PMS7003;64830;46.910;6.354;2023-09-08T03:29:56;23.00;21.00;16.50
76101;PMS7003;64830;46.910;6.354;2023-09-08T03:32:27;19.25;18.25;12.25
76101;PMS7003;64830;46.910;6.354;2023-09-08T03:35:16;20.00;19.00;14.75
76101;PMS7003;64830;46.910;6.354;2023-09-08T03:37:59;25.25;22.25;15.25
76101;PMS7003;64830;46.910;6.354;2023-09-08T03:40:28;16.00;16.00;13.00
76101;PMS7003;64830;46.910;6.354;2023-09-08T03:42:53;19.25;18.00;13.50
76101;PMS7003;64830;46.910;6.354;2023-09-08T03:45:18;20.25;20.00;15.00
76101;PMS7003;64830;46.910;6.354;2023-09-08T03:47:44;23.75;23.00;16.00
76101;PMS7003;64830;46.910;6.354;2023-09-08T03:50:15;21.75;21.25;15.25
76101;PMS7003;64830;46.910;6.354;2023-09-08T03:52:44;20.50;20.50;16.00
76101;PMS7003;64830;46.910;6.354;2023-09-08T03:55:12;22.25;20.25;16.50
76101;PMS7003;64830;46.910;6.354;2023-09-08T03:57:38;23.00;21.00;15.00
76101;PMS7003;64830;46.910;6.354;2023-09-08T04:00:04;20.00;20.00;15.00
76101;PMS7003;64830;46.910;6.354;2023-09-08T04:02:56;20.50;19.50;14.00
76101;PMS7003;64830;46.910;6.354;2023-09-08T04:05:37;17.00;16.75;13.75
76101;PMS7003;64830;46.910;6.354;2023-09-08T04:08:02;19.00;19.00;14.00
76101;PMS7003;64830;46.910;6.354;2023-09-08T04:10:27;24.00;21.50;14.50
76101;PMS7003;64830;46.910;6.354;2023-09-08T04:13:02;19.25;18.25;12.75
76101;PMS7003;64830;46.910;6.354;2023-09-08T04:15:42;21.50;19.25;14.25
76101;PMS7003;64830;46.910;6.354;2023-09-08T04:18:07;23.00;21.00;15.00
76101;PMS7003;64830;46.910;6.354;2023-09-08T04:20:33;23.50;20.25;13.25
76101;PMS7003;64830;46.910;6.354;2023-09-08T04:23:07;24.50;21.00;14.75
76101;PMS7003;64830;46.910;6.354;2023-09-08T04:25:39;21.00;19.50;14.00
76101;PMS7003;64830;46.910;6.354;2023-09-08T04:28:04;20.75;19.75;14.00
76101;PMS7003;64830;46.910;6.354;2023-09-08T04:30:30;23.25;21.75;14.75
76101;PMS7003;64830;46.910;6.354;2023-09-08T04:33:01;20.00;18.25;15.00
76101;PMS7003;64830;46.910;6.354;2023-09-08T04:35:27;19.00;18.25;13.00
76101;PMS7003;64830;46.910;6.354;2023-09-08T04:37:52;20.25;18.50;13.75
76101;PMS7003;64830;46.910;6.354;2023-09-08T04:40:24;19.75;18.50;13.25
76101;PMS7003;64830;46.910;6.354;2023-09-08T04:42:50;19.00;18.50;13.50
76101;PMS7003;64830;46.910;6.354;2023-09-08T04:45:15;20.75;18.75;13.00
76101;PMS7003;64830;46.910;6.354;2023-09-08T04:47:41;19.25;18.25;14.00
76101;PMS7003;64830;46.910;6.354;2023-09-08T04:50:12;21.75;19.75;13.75
76101;PMS7003;64830;46.910;6.354;2023-09-08T04:52:40;18.00;16.50;12.50
76101;PMS7003;64830;46.910;6.354;2023-09-08T04:55:06;19.25;16.50;12.00
76101;PMS7003;64830;46.910;6.354;2023-09-08T04:57:39;18.50;17.25;12.00
76101;PMS7003;64830;46.910;6.354;2023-09-08T05:00:05;20.25;18.75;14.50
76101;PMS7003;64830;46.910;6.354;2023-09-08T05:02:47;18.75;18.25;14.00
76101;PMS7003;64830;46.910;6.354;2023-09-08T05:05:13;18.75;18.75;14.00
76101;PMS7003;64830;46.910;6.354;2023-09-08T05:07:50;20.75;19.50;13.00
76101;PMS7003;64830;46.910;6.354;2023-09-08T05:10:24;19.00;17.75;13.75
76101;PMS7003;64830;46.910;6.354;2023-09-08T05:12:56;17.75;17.00;13.00
76101;PMS7003;64830;46.910;6.354;2023-09-08T05:15:21;21.50;17.75;13.00
76101;PMS7003;64830;46.910;6.354;2023-09-08T05:17:49;16.75;16.25;12.00
76101;PMS7003;64830;46.910;6.354;2023-09-08T05:20:18;19.50;19.50;13.00
76101;PMS7003;64830;46.910;6.354;2023-09-08T05:22:49;19.75;17.00;14.00
76101;PMS7003;64830;46.910;6.354;2023-09-08T05:25:21;20.50;19.00;15.00
76101;PMS7003;64830;46.910;6.354;2023-09-08T05:27:52;22.50;20.75;16.25
76101;PMS7003;64830;46.910;6.354;2023-09-08T05:30:24;24.75;21.25;14.00
76101;PMS7003;64830;46.910;6.354;2023-09-08T05:32:56;19.25;19.25;14.25
76101;PMS7003;64830;46.910;6.354;2023-09-08T05:35:22;18.50;17.25;13.00
76101;PMS7003;64830;46.910;6.354;2023-09-08T05:37:53;18.00;18.00;13.50
76101;PMS7003;64830;46.910;6.354;2023-09-08T05:40:18;21.75;20.00;15.00
76101;PMS7003;64830;46.910;6.354;2023-09-08T05:42:49;19.50;18.50;13.75
76101;PMS7003;64830;46.910;6.354;2023-09-08T05:45:14;20.25;20.25;13.75
76101;PMS7003;64830;46.910;6.354;2023-09-08T05:47:47;21.00;20.25;14.25
76101;PMS7003;64830;46.910;6.354;2023-09-08T05:50:20;18.50;17.50;13.00
76101;PMS7003;64830;46.910;6.354;2023-09-08T05:52:45;18.00;17.00;13.00
76101;PMS7003;64830;46.910;6.354;2023-09-08T05:55:11;22.25;21.75;15.00
76101;PMS7003;64830;46.910;6.354;2023-09-08T05:57:36;19.00;18.75;14.50
76101;PMS7003;64830;46.910;6.354;2023-09-08T06:00:11;22.25;20.25;14.50
76101;PMS7003;64830;46.910;6.354;2023-09-08T06:02:51;22.25;20.00;12.00
76101;PMS7003;64830;46.910;6.354;2023-09-08T06:05:19;21.25;19.75;14.00
76101;PMS7003;64830;46.910;6.354;2023-09-08T06:07:44;19.75;19.25;14.00
76101;PMS7003;64830;46.910;6.354;2023-09-08T06:10:16;16.25;16.25;13.00
76101;PMS7003;64830;46.910;6.354;2023-09-08T06:12:47;20.75;19.75;14.00
76101;PMS7003;64830;46.910;6.354;2023-09-08T06:15:21;19.75;19.50;13.75
76101;PMS7003;64830;46.910;6.354;2023-09-08T06:17:47;20.75;20.00;13.00
76101;PMS7003;64830;46.910;6.354;2023-09-08T06:20:16;20.50;18.25;13.50
76101;PMS7003;64830;46.910;6.354;2023-09-08T06:22:47;20.25;19.50;14.75
76101;PMS7003;64830;46.910;6.354;2023-09-08T06:25:12;21.25;19.50;15.00
76101;PMS7003;64830;46.910;6.354;2023-09-08T06:27:38;17.25;16.50;13.00
76101;PMS7003;64830;46.910;6.354;2023-09-08T06:30:19;17.25;15.75;14.50
76101;PMS7003;64830;46.910;6.354;2023-09-08T06:32:44;18.75;18.75;14.00
76101;PMS7003;64830;46.910;6.354;2023-09-08T06:35:10;18.33;17.67;13.00
76101;PMS7003;64830;46.910;6.354;2023-09-08T06:37:39;18.25;17.25;14.00
76101;PMS7003;64830;46.910;6.354;2023-09-08T06:40:16;21.25;21.00;16.00
76101;PMS7003;64830;46.910;6.354;2023-09-08T06:42:51;17.75;16.00;13.00
76101;PMS7003;64830;46.910;6.354;2023-09-08T06:45:16;19.75;18.00;14.00
76101;PMS7003;64830;46.910;6.354;2023-09-08T06:47:42;22.25;18.50;13.50
76101;PMS7003;64830;46.910;6.354;2023-09-08T06:50:20;16.75;15.00;11.50
76101;PMS7003;64830;46.910;6.354;2023-09-08T06:52:46;16.50;16.50;13.50
76101;PMS7003;64830;46.910;6.354;2023-09-08T06:55:12;17.25;17.25;13.00
76101;PMS7003;64830;46.910;6.354;2023-09-08T06:57:54;16.50;16.25;13.25
76101;PMS7003;64830;46.910;6.354;2023-09-08T07:00:27;20.75;20.75;15.25
76101;PMS7003;64830;46.910;6.354;2023-09-08T07:02:59;19.00;19.00;15.00
76101;PMS7003;64830;46.910;6.354;2023-09-08T07:05:24;21.25;18.75;14.50
76101;PMS7003;64830;46.910;6.354;2023-09-08T07:07:50;18.25;17.50;14.25
76101;PMS7003;64830;46.910;6.354;2023-09-08T07:10:15;18.75;16.75;13.25
76101;PMS7003;64830;46.910;6.354;2023-09-08T07:12:40;19.00;18.00;13.00
76101;PMS7003;64830;46.910;6.354;2023-09-08T07:15:06;16.75;15.75;11.50
76101;PMS7003;64830;46.910;6.354;2023-09-08T07:17:36;19.25;17.75;15.00
76101;PMS7003;64830;46.910;6.354;2023-09-08T07:20:01;17.75;17.00;14.25
76101;PMS7003;64830;46.910;6.354;2023-09-08T07:22:28;17.00;15.25;11.75
76101;PMS7003;64830;46.910;6.354;2023-09-08T07:24:53;17.00;15.00;12.25
76101;PMS7003;64830;46.910;6.354;2023-09-08T07:27:19;17.00;16.00;11.50
76101;PMS7003;64830;46.910;6.354;2023-09-08T07:29:45;15.75;14.25;10.50
76101;PMS7003;64830;46.910;6.354;2023-09-08T07:32:16;14.75;14.50;13.00
76101;PMS7003;64830;46.910;6.354;2023-09-08T07:34:41;17.50;16.00;13.00
76101;PMS7003;64830;46.910;6.354;2023-09-08T07:37:07;17.00;16.50;11.00
76101;PMS7003;64830;46.910;6.354;2023-09-08T07:39:32;15.50;15.50;11.50
76101;PMS7003;64830;46.910;6.354;2023-09-08T07:42:00;20.50;20.00;12.25
76101;PMS7003;64830;46.910;6.354;2023-09-08T07:44:26;18.25;17.00;12.25
76101;PMS7003;64830;46.910;6.354;2023-09-08T07:46:51;15.75;14.25;11.00
76101;PMS7003;64830;46.910;6.354;2023-09-08T07:49:17;17.25;15.25;10.75
76101;PMS7003;64830;46.910;6.354;2023-09-08T07:51:44;15.75;15.75;11.00
76101;PMS7003;64830;46.910;6.354;2023-09-08T07:54:10;17.50;15.00;11.25
76101;PMS7003;64830;46.910;6.354;2023-09-08T07:56:36;17.00;16.75;12.25
76101;PMS7003;64830;46.910;6.354;2023-09-08T07:59:01;18.50;16.25;11.50
76101;PMS7003;64830;46.910;6.354;2023-09-08T08:01:27;16.50;15.75;11.25
76101;PMS7003;64830;46.910;6.354;2023-09-08T08:03:52;16.00;15.25;11.25
76101;PMS7003;64830;46.910;6.354;2023-09-08T08:06:23;16.50;16.00;12.25
76101;PMS7003;64830;46.910;6.354;2023-09-08T08:08:55;17.50;17.50;12.25
76101;PMS7003;64830;46.910;6.354;2023-09-08T08:11:21;14.50;14.25;11.25
76101;PMS7003;64830;46.910;6.354;2023-09-08T08:13:47;11.75;11.75;8.00
76101;PMS7003;64830;46.910;6.354;2023-09-08T08:16:19;17.75;15.75;13.00
76101;PMS7003;64830;46.910;6.354;2023-09-08T08:18:52;16.25;16.00;12.25
76101;PMS7003;64830;46.910;6.354;2023-09-08T08:21:18;14.50;14.50;12.25
76101;PMS7003;64830;46.910;6.354;2023-09-08T08:23:43;17.25;15.00;12.00
76101;PMS7003;64830;46.910;6.354;2023-09-08T08:29:26;15.00;13.50;11.00
76101;PMS7003;64830;46.910;6.354;2023-09-08T08:32:27;16.50;13.50;10.75
76101;PMS7003;64830;46.910;6.354;2023-09-08T08:35:08;17.25;15.75;12.00
76101;PMS7003;64830;46.910;6.354;2023-09-08T08:37:33;14.75;14.50;10.25
76101;PMS7003;64830;46.910;6.354;2023-09-08T08:40:05;14.50;14.50;12.00
76101;PMS7003;64830;46.910;6.354;2023-09-08T08:42:32;18.75;15.50;11.50
76101;PMS7003;64830;46.910;6.354;2023-09-08T08:45:04;19.00;17.25;13.00
76101;PMS7003;64830;46.910;6.354;2023-09-08T08:47:30;17.00;15.25;10.50
76101;PMS7003;64830;46.910;6.354;2023-09-08T08:50:08;18.25;17.75;11.75
76101;PMS7003;64830;46.910;6.354;2023-09-08T08:52:42;14.50;13.50;10.50
76101;PMS7003;64830;46.910;6.354;2023-09-08T08:55:24;13.00;12.25;9.00
76101;PMS7003;64830;46.910;6.354;2023-09-08T08:58:05;12.75;12.25;10.00
76101;PMS7003;64830;46.910;6.354;2023-09-08T09:00:33;13.25;11.75;8.00
76101;PMS7003;64830;46.910;6.354;2023-09-08T09:03:05;11.00;10.25;8.25
76101;PMS7003;64830;46.910;6.354;2023-09-08T09:05:38;12.75;12.75;9.00
76101;PMS7003;64830;46.910;6.354;2023-09-08T09:08:11;14.00;14.00;10.75
76101;PMS7003;64830;46.910;6.354;2023-09-08T09:10:44;13.75;12.00;8.00
76101;PMS7003;64830;46.910;6.354;2023-09-08T09:13:09;10.00;9.75;7.25
76101;PMS7003;64830;46.910;6.354;2023-09-08T09:15:35;11.50;11.50;7.00
76101;PMS7003;64830;46.910;6.354;2023-09-08T09:18:09;10.50;10.50;8.50
76101;PMS7003;64830;46.910;6.354;2023-09-08T09:20:41;10.25;10.25;8.00
76101;PMS7003;64830;46.910;6.354;2023-09-08T09:23:33;11.50;11.50;8.75
76101;PMS7003;64830;46.910;6.354;2023-09-08T09:26:22;14.25;13.25;9.25
76101;PMS7003;64830;46.910;6.354;2023-09-08T09:28:54;12.50;11.75;8.25
76101;PMS7003;64830;46.910;6.354;2023-09-08T09:31:26;14.50;13.00;9.00
76101;PMS7003;64830;46.910;6.354;2023-09-08T09:34:01;13.00;11.00;8.50
76101;PMS7003;64830;46.910;6.354;2023-09-08T09:36:34;11.75;11.75;8.75
76101;PMS7003;64830;46.910;6.354;2023-09-08T09:39:00;12.75;12.75;10.75
76101;PMS7003;64830;46.910;6.354;2023-09-08T09:41:32;11.00;11.00;9.00
76101;PMS7003;64830;46.910;6.354;2023-09-08T09:43:59;13.50;13.00;9.00
76101;PMS7003;64830;46.910;6.354;2023-09-08T09:46:28;10.50;9.75;8.00
76101;PMS7003;64830;46.910;6.354;2023-09-08T09:52:03;11.50;11.25;8.25
76101;PMS7003;64830;46.910;6.354;2023-09-08T09:54:35;10.75;9.50;7.25
76101;PMS7003;64830;46.910;6.354;2023-09-08T09:57:06;10.75;10.75;9.00
76101;PMS7003;64830;46.910;6.354;2023-09-08T09:59:43;10.50;9.50;8.25
76101;PMS7003;64830;46.910;6.354;2023-09-08T10:02:12;12.25;12.25;8.00
76101;PMS7003;64830;46.910;6.354;2023-09-08T10:04:50;13.25;10.75;8.00
76101;PMS7003;64830;46.910;6.354;2023-09-08T10:10:00;10.75;10.75;7.50
76101;PMS7003;64830;46.910;6.354;2023-09-08T10:12:44;13.75;10.75;6.00
76101;PMS7003;64830;46.910;6.354;2023-09-08T10:15:21;9.25;9.25;7.25
76101;PMS7003;64830;46.910;6.354;2023-09-08T10:17:56;12.50;12.50;9.50
76101;PMS7003;64830;46.910;6.354;2023-09-08T10:26:29;11.50;11.00;9.25
76101;PMS7003;64830;46.910;6.354;2023-09-08T10:29:05;13.50;12.50;9.25
76101;PMS7003;64830;46.910;6.354;2023-09-08T10:31:31;12.75;12.75;9.00
76101;PMS7003;64830;46.910;6.354;2023-09-08T10:34:09;11.75;11.00;8.75
76101;PMS7003;64830;46.910;6.354;2023-09-08T10:36:38;13.00;11.00;8.25
76101;PMS7003;64830;46.910;6.354;2023-09-08T10:42:26;10.75;10.25;8.00
76101;PMS7003;64830;46.910;6.354;2023-09-08T10:45:00;15.25;11.50;10.00
76101;PMS7003;64830;46.910;6.354;2023-09-08T10:50:41;13.00;13.00;9.25
76101;PMS7003;64830;46.910;6.354;2023-09-08T10:53:14;10.00;10.00;8.00
76101;PMS7003;64830;46.910;6.354;2023-09-08T10:56:02;14.50;10.75;8.00
76101;PMS7003;64830;46.910;6.354;2023-09-08T10:58:48;12.00;12.00;8.25
76101;PMS7003;64830;46.910;6.354;2023-09-08T11:01:31;13.75;11.00;9.00
76101;PMS7003;64830;46.910;6.354;2023-09-08T11:04:00;9.75;9.75;7.25
76101;PMS7003;64830;46.910;6.354;2023-09-08T11:06:46;11.50;10.75;8.50
76101;PMS7003;64830;46.910;6.354;2023-09-08T11:09:17;13.50;11.25;8.00
76101;PMS7003;64830;46.910;6.354;2023-09-08T11:11:43;10.25;8.50;6.50
76101;PMS7003;64830;46.910;6.354;2023-09-08T11:14:11;10.00;9.00;7.00
76101;PMS7003;64830;46.910;6.354;2023-09-08T11:16:37;9.00;9.00;6.50
76101;PMS7003;64830;46.910;6.354;2023-09-08T11:19:02;8.75;8.75;6.75
76101;PMS7003;64830;46.910;6.354;2023-09-08T11:21:29;10.25;9.25;7.25
76101;PMS7003;64830;46.910;6.354;2023-09-08T11:23:59;9.25;8.75;7.00
76101;PMS7003;64830;46.910;6.354;2023-09-08T11:26:41;9.50;9.50;8.00
76101;PMS7003;64830;46.910;6.354;2023-09-08T11:29:13;9.00;9.00;7.50
76101;PMS7003;64830;46.910;6.354;2023-09-08T11:31:39;9.75;9.00;6.50
76101;PMS7003;64830;46.910;6.354;2023-09-08T11:34:07;10.00;10.00;7.50
76101;PMS7003;64830;46.910;6.354;2023-09-08T11:36:32;8.25;8.25;6.50
76101;PMS7003;64830;46.910;6.354;2023-09-08T11:39:24;9.50;8.75;7.00
76101;PMS7003;64830;46.910;6.354;2023-09-08T11:41:56;10.50;9.75;7.00
76101;PMS7003;64830;46.910;6.354;2023-09-08T11:44:31;11.50;10.00;7.00
76101;PMS7003;64830;46.910;6.354;2023-09-08T11:50:01;10.25;9.25;6.50
76101;PMS7003;64830;46.910;6.354;2023-09-08T11:52:43;10.50;10.50;8.00
76101;PMS7003;64830;46.910;6.354;2023-09-08T11:55:16;10.50;8.75;6.50
76101;PMS7003;64830;46.910;6.354;2023-09-08T11:57:49;11.50;11.50;10.50
76101;PMS7003;64830;46.910;6.354;2023-09-08T12:00:33;8.75;8.75;7.00
76101;PMS7003;64830;46.910;6.354;2023-09-08T12:04:00;11.00;10.75;8.00
76101;PMS7003;64830;46.910;6.354;2023-09-08T12:06:30;11.50;10.00;6.25
76101;PMS7003;64830;46.910;6.354;2023-09-08T12:09:02;10.50;10.50;8.00
76101;PMS7003;64830;46.910;6.354;2023-09-08T12:11:34;12.00;10.00;8.00
76101;PMS7003;64830;46.910;6.354;2023-09-08T12:14:00;10.50;9.50;7.75
76101;PMS7003;64830;46.910;6.354;2023-09-08T12:16:26;10.50;9.25;6.75
76101;PMS7003;64830;46.910;6.354;2023-09-08T12:18:52;10.25;10.25;8.00
76101;PMS7003;64830;46.910;6.354;2023-09-08T12:21:17;8.50;7.25;6.50
76101;PMS7003;64830;46.910;6.354;2023-09-08T12:23:49;12.50;12.00;8.25
76101;PMS7003;64830;46.910;6.354;2023-09-08T12:26:16;8.25;8.25;6.25
76101;PMS7003;64830;46.910;6.354;2023-09-08T12:28:49;9.25;8.75;7.75
76101;PMS7003;64830;46.910;6.354;2023-09-08T12:31:22;10.75;10.75;7.75
76101;PMS7003;64830;46.910;6.354;2023-09-08T12:33:47;9.50;9.00;7.00
76101;PMS7003;64830;46.910;6.354;2023-09-08T12:36:23;8.50;8.50;6.50
76101;PMS7003;64830;46.910;6.354;2023-09-08T12:39:11;10.25;10.25;7.50
76101;PMS7003;64830;46.910;6.354;2023-09-08T12:41:40;9.50;9.00;7.00
76101;PMS7003;64830;46.910;6.354;2023-09-08T12:44:06;11.25;10.00;7.25
76101;PMS7003;64830;46.910;6.354;2023-09-08T12:46:38;11.75;10.50;8.00
76101;PMS7003;64830;46.910;6.354;2023-09-08T12:49:03;7.25;7.25;5.25
76101;PMS7003;64830;46.910;6.354;2023-09-08T12:51:28;10.25;10.25;7.50
76101;PMS7003;64830;46.910;6.354;2023-09-08T12:53:54;11.75;10.75;8.75
76101;PMS7003;64830;46.910;6.354;2023-09-08T12:56:25;8.50;8.50;7.00
76101;PMS7003;64830;46.910;6.354;2023-09-08T12:58:54;8.75;8.75;6.00
76101;PMS7003;64830;46.910;6.354;2023-09-08T13:01:19;9.75;9.75;7.75
76101;PMS7003;64830;46.910;6.354;2023-09-08T13:03:50;9.00;9.00;7.00
76101;PMS7003;64830;46.910;6.354;2023-09-08T13:06:19;8.75;8.75;6.75
76101;PMS7003;64830;46.910;6.354;2023-09-08T13:08:47;10.25;10.25;8.00
76101;PMS7003;64830;46.910;6.354;2023-09-08T13:11:16;13.00;11.25;10.00
76101;PMS7003;64830;46.910;6.354;2023-09-08T13:13:48;10.00;10.00;7.25
76101;PMS7003;64830;46.910;6.354;2023-09-08T13:16:19;13.25;13.25;8.75
76101;PMS7003;64830;46.910;6.354;2023-09-08T13:18:51;11.75;10.50;8.25
76101;PMS7003;64830;46.910;6.354;2023-09-08T13:21:19;10.00;10.00;9.00
76101;PMS7003;64830;46.910;6.354;2023-09-08T13:23:45;10.50;9.00;7.75
76101;PMS7003;64830;46.910;6.354;2023-09-08T13:26:13;10.50;10.25;7.50
76101;PMS7003;64830;46.910;6.354;2023-09-08T13:28:49;12.00;12.00;9.00
76101;PMS7003;64830;46.910;6.354;2023-09-08T13:31:17;10.75;10.75;9.25
76101;PMS7003;64830;46.910;6.354;2023-09-08T13:33:43;9.00;9.00;7.75
76101;PMS7003;64830;46.910;6.354;2023-09-08T13:36:11;11.00;10.25;7.50
76101;PMS7003;64830;46.910;6.354;2023-09-08T13:38:40;10.00;10.00;8.25
76101;PMS7003;64830;46.910;6.354;2023-09-08T13:44:23;12.50;11.75;9.00
76101;PMS7003;64830;46.910;6.354;2023-09-08T13:47:04;10.00;9.75;7.25
76101;PMS7003;64830;46.910;6.354;2023-09-08T13:49:29;11.50;11.25;8.25
76101;PMS7003;64830;46.910;6.354;2023-09-08T13:51:55;11.00;11.00;8.50
76101;PMS7003;64830;46.910;6.354;2023-09-08T13:54:20;11.50;10.50;7.50
76101;PMS7003;64830;46.910;6.354;2023-09-08T13:56:45;11.25;11.00;8.00
76101;PMS7003;64830;46.910;6.354;2023-09-08T13:59:29;10.75;10.75;7.75
76101;PMS7003;64830;46.910;6.354;2023-09-08T14:02:00;9.00;9.00;6.75
76101;PMS7003;64830;46.910;6.354;2023-09-08T14:04:35;11.25;11.25;8.75
76101;PMS7003;64830;46.910;6.354;2023-09-08T14:07:00;8.50;8.50;7.50
76101;PMS7003;64830;46.910;6.354;2023-09-08T14:09:29;8.75;8.50;7.00
76101;PMS7003;64830;46.910;6.354;2023-09-08T14:11:55;8.00;7.50;5.75
76101;PMS7003;64830;46.910;6.354;2023-09-08T14:14:23;11.00;10.00;8.00
76101;PMS7003;64830;46.910;6.354;2023-09-08T14:16:49;10.75;10.00;8.50
76101;PMS7003;64830;46.910;6.354;2023-09-08T14:19:30;8.25;8.25;6.25
76101;PMS7003;64830;46.910;6.354;2023-09-08T14:22:06;10.25;9.25;7.00
76101;PMS7003;64830;46.910;6.354;2023-09-08T14:24:32;12.25;11.00;8.00
76101;PMS7003;64830;46.910;6.354;2023-09-08T14:27:04;10.25;8.25;6.00
76101;PMS7003;64830;46.910;6.354;2023-09-08T14:29:29;9.50;8.75;6.25
76101;PMS7003;64830;46.910;6.354;2023-09-08T14:32:04;10.50;10.00;7.25
76101;PMS7003;64830;46.910;6.354;2023-09-08T14:34:36;10.00;8.50;7.00
76101;PMS7003;64830;46.910;6.354;2023-09-08T14:37:01;8.50;7.75;6.00
76101;PMS7003;64830;46.910;6.354;2023-09-08T14:39:30;7.75;7.00;5.00
76101;PMS7003;64830;46.910;6.354;2023-09-08T14:41:55;8.50;8.50;5.50
76101;PMS7003;64830;46.910;6.354;2023-09-08T14:44:23;10.75;10.75;7.75
76101;PMS7003;64830;46.910;6.354;2023-09-08T14:46:50;9.00;9.00;7.50
76101;PMS7003;64830;46.910;6.354;2023-09-08T14:49:18;8.25;8.25;7.00
76101;PMS7003;64830;46.910;6.354;2023-09-08T14:51:44;7.00;7.00;5.75
76101;PMS7003;64830;46.910;6.354;2023-09-08T14:54:31;9.75;9.50;7.25
76101;PMS7003;64830;46.910;6.354;2023-09-08T14:56:57;9.25;9.25;7.25